Silver Springs, Florida
Current Conditions -  °F | °C
As of 12:50 PM on Monday 24 Nov 2014 (Local Time) from KOCF Reporting Station
Broken Clouds Broken Clouds  
Wind Chill: 86°   Ceiling: 4400
Heat Index: 90°   Visibility: 10mi
Dew Point: 70°   Wind: 18mph
Humidity: 58%   Direction: 200°SSW
Pressure: 29.92"   Gusts: 25mph
Location:  29.22°N, 82.06°W
Report Text: KOCF 241750Z 20016G22KT 10SM SCT032 BKN044 30/21 A2992
Loading
Personal Weather Stations






























Interactive Weather Map New forecast layout! Learn more

10-Day Weather Forecast

Advertisements
Track Severe Weather on mobile